createdAt,value
2018-02-21T00:00:12.433Z,87.50
2018-02-21T00:02:38.648Z,87.25
2018-02-21T00:05:04.793Z,86.99
2018-02-21T00:07:30.988Z,87.24
2018-02-21T00:09:57.250Z,87.40
2018-02-21T00:12:23.475Z,87.92
2018-02-21T00:14:49.692Z,88.26
2018-02-21T00:17:15.866Z,88.23
2018-02-21T00:19:42.093Z,88.13
2018-02-21T00:22:08.284Z,88.16
2018-02-21T00:24:34.468Z,88.14
2018-02-21T00:27:00.681Z,88.51
2018-02-21T00:29:26.867Z,88.61
2018-02-21T00:31:53.004Z,88.49
2018-02-21T00:34:19.230Z,88.57
2018-02-21T00:36:45.413Z,88.29
2018-02-21T00:39:11.635Z,88.25
2018-02-21T00:41:37.876Z,88.16
2018-02-21T00:44:04.060Z,88.11
2018-02-21T00:46:30.275Z,88.12
2018-02-21T00:48:56.399Z,87.95
2018-02-21T00:51:22.636Z,87.73
2018-02-21T00:53:48.820Z,87.80
2018-02-21T00:56:14.995Z,88.11
2018-02-21T00:58:41.180Z,88.44
2018-02-21T01:01:07.392Z,88.47
2018-02-21T01:03:33.549Z,89.39
2018-02-21T01:05:59.737Z,89.37
2018-02-21T01:08:25.918Z,89.25
2018-02-21T01:10:52.182Z,89.22
2018-02-21T01:13:18.328Z,89.03
2018-02-21T01:15:44.489Z,88.80
2018-02-21T01:18:10.696Z,88.66
2018-02-21T01:20:36.889Z,88.62
2018-02-21T01:23:03.041Z,88.56
2018-02-21T01:25:29.254Z,88.57
2018-02-21T01:27:55.446Z,88.51
2018-02-21T01:30:21.724Z,88.40
2018-02-21T01:32:47.871Z,88.50
2018-02-21T01:35:14.053Z,88.77
2018-02-21T01:37:40.245Z,88.86
2018-02-21T01:40:06.456Z,88.83
2018-02-21T01:42:32.646Z,89.01
2018-02-21T01:44:58.883Z,88.91
2018-02-21T01:47:25.065Z,88.73
2018-02-21T01:49:51.353Z,88.81
2018-02-21T01:52:17.480Z,88.68
2018-02-21T01:54:43.814Z,88.86
2018-02-21T01:57:10.018Z,88.93
2018-02-21T01:59:36.214Z,89.13
2018-02-21T02:02:02.452Z,89.12
2018-02-21T02:04:28.692Z,89.04
2018-02-21T02:06:54.835Z,88.80
2018-02-21T02:09:21.083Z,88.96
2018-02-21T02:11:47.301Z,88.99
2018-02-21T02:14:13.479Z,88.93
2018-02-21T02:16:39.661Z,89.01
2018-02-21T02:19:05.827Z,88.92
2018-02-21T02:21:32.048Z,88.98
2018-02-21T02:23:58.203Z,89.45
2018-02-21T02:26:24.398Z,89.53
2018-02-21T02:28:50.582Z,89.76
2018-02-21T02:31:16.805Z,89.78
2018-02-21T02:33:42.983Z,89.55
2018-02-21T02:36:09.234Z,89.84
2018-02-21T02:38:40.188Z,89.94
2018-02-21T02:41:06.453Z,89.74
2018-02-21T02:43:32.670Z,89.79
2018-02-21T02:45:58.859Z,89.55
2018-02-21T02:48:25.042Z,90.08
2018-02-21T02:50:51.348Z,89.90
2018-02-21T02:53:17.507Z,89.52
2018-02-21T02:55:43.693Z,89.49
2018-02-21T02:58:09.909Z,89.21
2018-02-21T03:00:36.126Z,89.12
2018-02-21T03:03:02.347Z,89.22
2018-02-21T03:05:28.604Z,89.18
2018-02-21T03:07:54.816Z,89.41
2018-02-21T03:10:21.021Z,89.58
2018-02-21T03:12:47.240Z,89.56
2018-02-21T03:15:13.408Z,89.61
2018-02-21T03:17:39.593Z,89.81
2018-02-21T03:20:05.833Z,89.85
2018-02-21T03:22:32.017Z,90.19
2018-02-21T03:24:58.153Z,90.23
2018-02-21T03:27:24.349Z,90.19
2018-02-21T03:29:50.546Z,90.42
2018-02-21T03:32:21.635Z,90.27
2018-02-21T03:34:47.901Z,90.14
2018-02-21T03:37:14.077Z,90.20
2018-02-21T03:39:40.275Z,90.29
2018-02-21T03:42:06.485Z,90.32
2018-02-21T03:44:32.689Z,90.39
2018-02-21T03:46:58.866Z,90.31
2018-02-21T03:49:25.098Z,90.43
2018-02-21T03:51:51.325Z,90.46
2018-02-21T03:54:17.503Z,90.62
2018-02-21T03:56:43.705Z,90.55
2018-02-21T03:59:09.878Z,90.61
2018-02-21T04:01:36.221Z,90.78
2018-02-21T04:04:02.455Z,91.01
2018-02-21T04:06:28.722Z,90.95
2018-02-21T04:08:54.887Z,91.11
2018-02-21T04:11:21.178Z,90.74
2018-02-21T04:16:26.953Z,90.00
2018-02-21T04:18:53.467Z,89.04
2018-02-21T04:21:19.752Z,88.58
2018-02-21T04:23:49.199Z,88.00
2018-02-21T04:26:15.378Z,87.86
2018-02-21T04:31:55.303Z,87.37
2018-02-21T04:34:21.634Z,87.27
2018-02-21T04:37:07.843Z,87.44
2018-02-21T04:39:34.095Z,87.44
2018-02-21T04:42:00.312Z,87.50
2018-02-21T04:44:26.506Z,87.42
2018-02-21T04:46:52.700Z,87.34
2018-02-21T04:49:18.959Z,87.74
2018-02-21T04:51:45.181Z,87.68
2018-02-21T04:54:12.428Z,88.33
2018-02-21T04:56:44.636Z,87.93
2018-02-21T04:59:25.812Z,87.96
2018-02-21T05:01:52.098Z,87.81
2018-02-21T05:04:18.587Z,87.73
2018-02-21T05:06:44.786Z,87.92
2018-02-21T05:09:10.956Z,87.94
2018-02-21T05:11:37.182Z,88.41
2018-02-21T05:14:03.459Z,88.18
2018-02-21T05:16:29.602Z,88.14
2018-02-21T05:18:55.791Z,87.95
2018-02-21T05:21:22.019Z,87.81
2018-02-21T05:23:48.423Z,87.67
2018-02-21T05:26:14.551Z,87.75
2018-02-21T05:28:40.765Z,87.35
2018-02-21T05:31:07.059Z,87.42
2018-02-21T05:33:33.252Z,86.99
2018-02-21T05:35:59.525Z,87.22
2018-02-21T05:38:25.680Z,87.19
2018-02-21T05:40:51.927Z,86.97
2018-02-21T05:43:18.158Z,86.85
2018-02-21T05:45:44.299Z,86.49
2018-02-21T05:48:10.499Z,86.34
2018-02-21T05:50:36.735Z,86.60
2018-02-21T05:53:02.990Z,86.15
2018-02-21T05:55:29.167Z,86.49
2018-02-21T05:57:55.387Z,86.49
2018-02-21T06:00:21.579Z,86.66
2018-02-21T06:02:47.827Z,86.65
2018-02-21T06:05:14.059Z,86.35
2018-02-21T06:07:40.256Z,86.81
2018-02-21T06:10:06.443Z,86.81
2018-02-21T06:12:32.670Z,87.34
2018-02-21T06:14:58.849Z,87.40
2018-02-21T06:17:25.158Z,87.44
2018-02-21T06:19:51.356Z,87.48
2018-02-21T06:22:17.565Z,87.73
2018-02-21T06:24:43.756Z,87.50
2018-02-21T06:27:09.965Z,87.59
2018-02-21T06:29:36.281Z,87.31
2018-02-21T06:32:02.541Z,87.76
2018-02-21T06:34:28.771Z,87.99
2018-02-21T06:36:54.947Z,87.82
2018-02-21T06:39:21.181Z,87.83
2018-02-21T06:41:47.494Z,88.03
2018-02-21T06:44:13.725Z,88.38
2018-02-21T06:46:39.901Z,88.65
2018-02-21T06:49:06.158Z,88.70
2018-02-21T06:51:32.352Z,88.61
2018-02-21T06:53:58.540Z,88.80
2018-02-21T06:56:24.762Z,89.13
2018-02-21T06:58:50.939Z,89.34
2018-02-21T07:01:17.165Z,89.49
2018-02-21T07:03:43.369Z,89.45
2018-02-21T07:06:09.589Z,89.48
2018-02-21T07:08:35.876Z,89.44
2018-02-21T07:11:02.099Z,89.42
2018-02-21T07:13:28.299Z,89.60
2018-02-21T07:15:54.547Z,89.97
2018-02-21T07:18:20.716Z,90.06
2018-02-21T07:20:46.897Z,90.15
2018-02-21T07:23:13.073Z,90.36
2018-02-21T07:25:39.214Z,90.41
2018-02-21T07:28:05.372Z,90.18
2018-02-21T07:30:31.621Z,90.16
2018-02-21T07:32:57.850Z,90.11
2018-02-21T07:35:24.075Z,90.21
2018-02-21T07:37:50.449Z,89.94
2018-02-21T07:40:16.597Z,89.48
2018-02-21T07:42:42.785Z,89.12
2018-02-21T07:45:09.036Z,88.99
2018-02-21T07:47:35.285Z,88.92
2018-02-21T07:50:01.479Z,88.62
2018-02-21T07:52:27.705Z,88.17
2018-02-21T07:54:54.001Z,88.16
2018-02-21T07:57:20.172Z,88.14
2018-02-21T07:59:46.352Z,87.79
2018-02-21T08:02:12.612Z,87.25
2018-02-21T08:04:38.897Z,86.84
2018-02-21T08:07:05.081Z,86.65
2018-02-21T08:09:31.238Z,86.06
2018-02-21T08:11:57.715Z,85.85
2018-02-21T08:14:23.908Z,85.21
2018-02-21T08:16:50.982Z,85.07
2018-02-21T08:19:17.141Z,84.89
2018-02-21T08:21:43.372Z,84.69
2018-02-21T08:24:09.559Z,84.29
2018-02-21T08:26:35.759Z,83.79
2018-02-21T08:29:01.941Z,83.28
2018-02-21T08:31:28.123Z,83.37
2018-02-21T08:33:54.288Z,83.07
2018-02-21T08:36:20.494Z,82.73
2018-02-21T08:38:46.648Z,82.56
2018-02-21T08:41:12.830Z,81.76
2018-02-21T08:43:39.086Z,81.77
2018-02-21T08:46:05.244Z,81.07
2018-02-21T08:48:31.416Z,78.80
2018-02-21T08:50:57.601Z,75.98
2018-02-21T08:53:23.823Z,70.71
2018-02-21T08:55:49.979Z,68.66
2018-02-21T08:58:16.131Z,66.24
2018-02-21T09:00:42.483Z,65.28
2018-02-21T09:03:08.695Z,63.26
2018-02-21T09:05:34.875Z,62.35
2018-02-21T09:08:01.146Z,61.26
2018-02-21T09:10:27.372Z,60.42
2018-02-21T09:12:53.563Z,60.99
2018-02-21T09:15:19.902Z,61.12
2018-02-21T09:17:46.055Z,61.60
2018-02-21T09:20:12.239Z,62.55
2018-02-21T09:22:38.524Z,61.89
2018-02-21T09:25:04.766Z,65.21
2018-02-21T09:27:30.894Z,65.76
2018-02-21T09:29:57.005Z,65.85
2018-02-21T09:32:23.183Z,67.34
2018-02-21T09:34:49.346Z,67.01
2018-02-21T09:37:15.463Z,67.55
2018-02-21T09:39:41.633Z,68.79
2018-02-21T09:42:07.787Z,69.94
2018-02-21T09:44:33.888Z,68.58
2018-02-21T09:47:00.020Z,68.18
2018-02-21T09:49:26.152Z,68.10
2018-02-21T09:51:52.330Z,69.42
2018-02-21T09:54:18.466Z,69.32
2018-02-21T09:56:44.613Z,69.49
2018-02-21T09:59:10.748Z,70.24
2018-02-21T10:01:36.862Z,70.82
2018-02-21T10:04:03.063Z,70.84
2018-02-21T10:06:29.235Z,71.56
2018-02-21T10:08:55.343Z,69.86
2018-02-21T10:11:21.604Z,72.34
2018-02-21T10:13:47.799Z,71.03
2018-02-21T10:16:13.953Z,71.39
2018-02-21T10:18:40.082Z,70.22
2018-02-21T10:21:06.285Z,69.85
2018-02-21T10:23:32.487Z,68.90
2018-02-21T10:25:58.782Z,68.99
2018-02-21T10:28:24.996Z,67.74
2018-02-21T10:30:51.194Z,66.93
2018-02-21T10:33:17.416Z,67.76
2018-02-21T10:35:43.642Z,68.80
2018-02-21T10:38:09.872Z,67.54
2018-02-21T10:40:36.101Z,68.29
2018-02-21T10:43:02.355Z,66.44
2018-02-21T10:45:28.520Z,67.68
2018-02-21T10:47:54.794Z,66.23
2018-02-21T10:50:20.989Z,65.55
2018-02-21T10:52:47.155Z,67.34
2018-02-21T10:55:13.317Z,65.85
2018-02-21T10:57:39.542Z,66.51
2018-02-21T11:00:05.701Z,64.34
2018-02-21T11:02:31.842Z,65.05
2018-02-21T11:04:58.081Z,64.58
2018-02-21T11:07:24.253Z,63.80
2018-02-21T11:09:50.430Z,63.33
2018-02-21T11:12:16.606Z,63.53
2018-02-21T11:14:42.789Z,62.79
2018-02-21T11:17:09.000Z,62.66
2018-02-21T11:19:35.196Z,61.56
2018-02-21T11:22:01.455Z,63.32
2018-02-21T11:24:27.673Z,63.76
2018-02-21T11:26:53.920Z,63.38
2018-02-21T11:29:20.147Z,63.49
2018-02-21T11:31:46.351Z,64.07
2018-02-21T11:34:12.558Z,65.19
2018-02-21T11:36:38.759Z,63.77
2018-02-21T11:39:04.997Z,61.26
2018-02-21T11:41:31.218Z,61.81
2018-02-21T11:43:57.368Z,62.72
2018-02-21T11:46:23.554Z,62.33
2018-02-21T11:48:49.702Z,63.31
2018-02-21T11:51:15.889Z,61.64
2018-02-21T11:53:42.095Z,62.22
2018-02-21T11:56:08.280Z,62.17
2018-02-21T11:58:34.548Z,61.12
2018-02-21T12:01:00.688Z,61.54
2018-02-21T12:03:26.834Z,60.97
2018-02-21T12:05:53.018Z,60.40
2018-02-21T12:08:19.222Z,62.61
2018-02-21T12:10:45.415Z,61.46
2018-02-21T12:13:11.611Z,62.68
2018-02-21T12:15:37.826Z,61.51
2018-02-21T12:18:04.018Z,60.07
2018-02-21T12:20:30.405Z,60.23
2018-02-21T12:22:56.605Z,61.37
2018-02-21T12:25:22.770Z,61.29
2018-02-21T12:27:49.015Z,60.96
2018-02-21T12:30:15.281Z,61.91
2018-02-21T12:32:43.283Z,61.05
2018-02-21T12:35:09.540Z,61.46
2018-02-21T12:37:35.791Z,60.30
2018-02-21T12:40:02.005Z,60.06
2018-02-21T12:42:28.208Z,60.17
2018-02-21T12:44:54.380Z,59.13
2018-02-21T12:47:20.575Z,59.85
2018-02-21T12:49:46.801Z,60.03
2018-02-21T12:52:13.006Z,59.67
2018-02-21T12:54:39.201Z,61.56
2018-02-21T12:57:05.441Z,61.14
2018-02-21T12:59:31.599Z,59.58
2018-02-21T13:01:57.745Z,60.24
2018-02-21T13:04:23.963Z,60.20
2018-02-21T13:06:50.355Z,60.86
2018-02-21T13:09:16.631Z,59.44
2018-02-21T13:11:42.806Z,59.81
2018-02-21T13:14:08.983Z,60.75
2018-02-21T13:16:35.164Z,60.77
2018-02-21T13:19:01.387Z,61.03
2018-02-21T13:21:27.601Z,60.36
2018-02-21T13:23:53.798Z,62.95
2018-02-21T13:26:20.010Z,61.79
2018-02-21T13:28:46.232Z,63.05
2018-02-21T13:31:12.562Z,64.25
2018-02-21T13:33:38.764Z,62.76
2018-02-21T13:36:05.032Z,62.92
2018-02-21T13:38:31.326Z,61.79
2018-02-21T13:40:57.480Z,61.71
2018-02-21T13:43:23.994Z,62.37
2018-02-21T13:45:50.149Z,62.66
2018-02-21T13:48:16.389Z,61.77
2018-02-21T13:50:42.643Z,59.13
2018-02-21T13:53:08.852Z,56.17
2018-02-21T13:55:35.038Z,54.65
2018-02-21T13:58:01.222Z,51.40
2018-02-21T14:00:27.420Z,50.09
2018-02-21T14:02:53.648Z,50.40
2018-02-21T14:05:19.894Z,50.02
2018-02-21T14:07:46.106Z,50.87
2018-02-21T14:10:12.289Z,51.56
2018-02-21T14:12:38.434Z,52.79
2018-02-21T14:15:04.587Z,54.74
2018-02-21T14:17:30.804Z,54.99
2018-02-21T14:19:57.068Z,56.68
2018-02-21T14:22:23.215Z,57.12
2018-02-21T14:24:49.373Z,59.64
2018-02-21T14:27:15.638Z,59.35
2018-02-21T14:29:41.884Z,60.21
2018-02-21T14:32:08.056Z,60.78
2018-02-21T14:34:34.277Z,59.87
2018-02-21T14:37:00.734Z,59.17
2018-02-21T14:39:26.964Z,59.62
2018-02-21T14:41:53.192Z,60.05
2018-02-21T14:44:19.371Z,60.26
2018-02-21T14:46:45.547Z,60.18
2018-02-21T14:49:11.775Z,59.98
2018-02-21T14:51:37.943Z,61.63
2018-02-21T14:54:04.106Z,61.00
2018-02-21T14:56:30.387Z,61.08
2018-02-21T14:58:56.610Z,62.38
2018-02-21T15:01:22.780Z,60.25
2018-02-21T15:03:48.956Z,61.07
2018-02-21T15:06:15.183Z,61.33
2018-02-21T15:08:41.395Z,61.51
2018-02-21T15:11:07.540Z,61.33
2018-02-21T15:13:33.747Z,61.61
2018-02-21T15:15:59.964Z,61.64
2018-02-21T15:18:26.215Z,61.31
2018-02-21T15:20:52.362Z,61.11
2018-02-21T15:23:18.557Z,60.66
2018-02-21T15:25:44.741Z,59.37
2018-02-21T15:28:11.011Z,58.73
2018-02-21T15:30:37.164Z,59.25
2018-02-21T15:33:03.401Z,60.34
2018-02-21T15:35:29.656Z,59.29
2018-02-21T15:37:55.870Z,59.06
2018-02-21T15:40:22.051Z,60.55
2018-02-21T15:42:48.293Z,60.21
2018-02-21T15:45:14.475Z,61.22
2018-02-21T15:47:40.756Z,61.09
2018-02-21T15:50:06.969Z,62.74
2018-02-21T15:52:33.158Z,62.03
2018-02-21T15:54:59.411Z,63.85
2018-02-21T15:57:25.646Z,62.21
2018-02-21T15:59:51.821Z,63.24
2018-02-21T16:02:17.984Z,63.78
2018-02-21T16:04:44.174Z,63.00
2018-02-21T16:07:10.332Z,63.56
2018-02-21T16:09:36.576Z,63.97
2018-02-21T16:12:02.815Z,64.01
2018-02-21T16:14:28.930Z,64.97
2018-02-21T16:16:55.069Z,64.20
2018-02-21T16:19:21.242Z,64.42
2018-02-21T16:21:47.497Z,64.75
2018-02-21T16:24:13.638Z,65.66
2018-02-21T16:26:40.649Z,66.57
2018-02-21T16:29:06.849Z,65.81
2018-02-21T16:31:33.031Z,65.40
2018-02-21T16:33:59.197Z,65.26
2018-02-21T16:36:25.429Z,65.54
2018-02-21T16:38:51.617Z,67.35
2018-02-21T16:41:17.824Z,69.10
2018-02-21T16:43:44.041Z,69.79
2018-02-21T16:46:10.233Z,70.50
2018-02-21T16:48:36.586Z,71.61
2018-02-21T16:51:02.753Z,71.83
2018-02-21T16:53:28.906Z,73.08
2018-02-21T16:55:55.096Z,72.63
2018-02-21T16:58:21.514Z,73.42
2018-02-21T17:00:47.828Z,73.03
2018-02-21T17:03:14.003Z,73.19
2018-02-21T17:05:40.258Z,73.47
2018-02-21T17:08:06.532Z,73.75
2018-02-21T17:10:32.710Z,74.01
2018-02-21T17:12:58.879Z,74.10
2018-02-21T17:15:25.078Z,74.84
2018-02-21T17:17:51.488Z,74.94
2018-02-21T17:20:17.709Z,75.14
2018-02-21T17:22:43.959Z,75.54
2018-02-21T17:25:10.148Z,75.99
2018-02-21T17:27:36.339Z,75.64
2018-02-21T17:30:02.591Z,76.32
2018-02-21T17:32:28.812Z,76.31
2018-02-21T17:34:55.058Z,76.55
2018-02-21T17:37:21.274Z,76.66
2018-02-21T17:39:47.655Z,77.02
2018-02-21T17:42:13.823Z,77.18
2018-02-21T17:44:40.044Z,77.25
2018-02-21T17:47:06.288Z,77.62
2018-02-21T17:49:32.562Z,78.27
2018-02-21T17:51:58.761Z,78.43
2018-02-21T17:54:24.974Z,78.30
2018-02-21T17:56:51.186Z,78.85
2018-02-21T17:59:17.424Z,78.63
2018-02-21T18:01:43.839Z,78.90
2018-02-21T18:04:10.066Z,78.71
2018-02-21T18:06:36.399Z,78.95
2018-02-21T18:09:02.750Z,79.05
2018-02-21T18:11:28.990Z,79.17
2018-02-21T18:13:55.149Z,78.84
2018-02-21T18:16:21.350Z,78.34
2018-02-21T18:18:47.548Z,78.47
2018-02-21T18:21:19.783Z,78.45
2018-02-21T18:23:45.981Z,78.79
2018-02-21T18:26:12.182Z,78.13
2018-02-21T18:28:38.503Z,78.19
2018-02-21T18:31:04.760Z,77.88
2018-02-21T18:33:30.977Z,77.81
2018-02-21T18:35:57.211Z,78.31
2018-02-21T18:38:23.434Z,77.81
2018-02-21T18:40:49.670Z,78.55
2018-02-21T18:43:15.908Z,78.32
2018-02-21T18:45:42.092Z,78.82
2018-02-21T18:48:08.355Z,78.63
2018-02-21T18:50:34.568Z,79.74
2018-02-21T18:53:00.755Z,79.22
2018-02-21T18:55:26.963Z,78.71
2018-02-21T18:57:53.133Z,78.75
2018-02-21T19:00:19.596Z,79.28
2018-02-21T19:02:45.814Z,80.03
2018-02-21T19:05:12.077Z,79.37
2018-02-21T19:07:38.281Z,79.71
2018-02-21T19:10:04.509Z,79.68
2018-02-21T19:12:30.689Z,80.14
2018-02-21T19:14:56.874Z,79.84
2018-02-21T19:17:23.122Z,79.87
2018-02-21T19:19:49.330Z,79.96
2018-02-21T19:22:15.545Z,80.33
2018-02-21T19:24:41.763Z,80.49
2018-02-21T19:27:08.001Z,80.90
2018-02-21T19:29:34.277Z,81.14
2018-02-21T19:32:00.496Z,81.53
2018-02-21T19:34:26.779Z,81.49
2018-02-21T19:36:53.006Z,81.39
2018-02-21T19:39:19.347Z,81.70
2018-02-21T19:41:45.563Z,82.02
2018-02-21T19:44:11.789Z,82.13
2018-02-21T19:46:37.995Z,82.58
2018-02-21T19:49:04.294Z,82.61
2018-02-21T19:51:30.465Z,82.65
2018-02-21T19:53:56.687Z,82.76
2018-02-21T19:56:22.901Z,83.35
2018-02-21T19:58:49.141Z,83.11
2018-02-21T20:01:15.299Z,83.29
2018-02-21T20:03:41.456Z,83.33
2018-02-21T20:06:07.692Z,83.37
2018-02-21T20:08:33.878Z,83.59
2018-02-21T20:11:00.070Z,83.68
2018-02-21T20:13:26.286Z,83.62
2018-02-21T20:15:52.477Z,83.87
2018-02-21T20:18:18.645Z,84.09
2018-02-21T20:20:44.879Z,84.37
2018-02-21T20:23:11.032Z,84.82
2018-02-21T20:25:37.177Z,85.06
2018-02-21T20:28:03.385Z,84.89
2018-02-21T20:30:29.610Z,84.60
2018-02-21T20:32:55.788Z,85.00
2018-02-21T20:35:21.998Z,84.40
2018-02-21T20:37:48.182Z,84.47
2018-02-21T20:40:14.371Z,84.06
2018-02-21T20:42:40.515Z,83.85
2018-02-21T20:45:06.652Z,84.07
2018-02-21T20:47:32.801Z,84.15
2018-02-21T20:49:58.998Z,84.23
2018-02-21T20:52:25.308Z,84.40
2018-02-21T20:54:51.419Z,84.24
2018-02-21T20:57:17.535Z,84.08
2018-02-21T20:59:43.703Z,83.57
2018-02-21T21:02:09.821Z,84.23
2018-02-21T21:04:36.013Z,83.84
2018-02-21T21:07:02.142Z,83.20
2018-02-21T21:09:28.334Z,82.58
2018-02-21T21:11:54.473Z,82.25
2018-02-21T21:14:20.593Z,82.18
2018-02-21T21:16:46.732Z,81.52
2018-02-21T21:19:12.948Z,81.10
2018-02-21T21:21:39.242Z,81.02
2018-02-21T21:24:05.347Z,80.89
2018-02-21T21:26:31.528Z,80.82
2018-02-21T21:28:57.686Z,80.56
2018-02-21T21:31:23.856Z,80.58
2018-02-21T21:33:50.071Z,80.75
2018-02-21T21:36:16.239Z,80.87
2018-02-21T21:38:42.359Z,80.77
2018-02-21T21:41:08.533Z,81.26
2018-02-21T21:43:34.673Z,81.13
2018-02-21T21:46:00.804Z,81.20
2018-02-21T21:48:26.980Z,81.71
2018-02-21T21:50:53.162Z,81.94
2018-02-21T21:53:19.378Z,81.94
2018-02-21T21:55:45.569Z,81.74
2018-02-21T21:58:11.793Z,82.38
2018-02-21T22:00:39.154Z,82.08
2018-02-21T22:03:05.389Z,82.64
2018-02-21T22:05:31.578Z,82.75
2018-02-21T22:07:57.763Z,82.51
2018-02-21T22:10:23.877Z,82.61
2018-02-21T22:12:50.092Z,82.58
2018-02-21T22:15:16.280Z,82.23
2018-02-21T22:17:42.450Z,82.28
2018-02-21T22:20:08.656Z,82.80
2018-02-21T22:22:34.797Z,82.59
2018-02-21T22:25:01.346Z,83.03
2018-02-21T22:27:27.522Z,83.11
2018-02-21T22:29:53.724Z,83.12
2018-02-21T22:32:19.930Z,83.37
2018-02-21T22:34:46.165Z,83.60
2018-02-21T22:37:12.410Z,83.49
2018-02-21T22:39:38.596Z,83.82
2018-02-21T22:42:04.761Z,84.11
2018-02-21T22:44:30.977Z,84.22
2018-02-21T22:46:57.150Z,84.22
2018-02-21T22:49:23.352Z,83.69
2018-02-21T22:51:49.512Z,83.70
2018-02-21T22:54:15.650Z,83.93
2018-02-21T22:56:41.842Z,83.57
2018-02-21T22:59:08.012Z,83.74
2018-02-21T23:01:34.229Z,84.84
2018-02-21T23:04:00.384Z,84.49
2018-02-21T23:06:26.581Z,84.73
2018-02-21T23:08:52.753Z,84.75
2018-02-21T23:11:18.964Z,84.86
2018-02-21T23:13:45.103Z,85.55
2018-02-21T23:16:11.259Z,85.19
2018-02-21T23:18:37.443Z,85.11
2018-02-21T23:21:03.654Z,85.06
2018-02-21T23:23:29.779Z,84.72
2018-02-21T23:25:56.043Z,84.61
2018-02-21T23:28:22.204Z,84.59
2018-02-21T23:30:48.412Z,84.65
2018-02-21T23:33:14.561Z,84.73
2018-02-21T23:35:40.772Z,85.18
2018-02-21T23:38:06.966Z,84.85
2018-02-21T23:40:33.231Z,84.75
2018-02-21T23:42:59.453Z,85.35
2018-02-21T23:45:25.620Z,85.73
2018-02-21T23:47:51.818Z,85.66
2018-02-21T23:50:18.024Z,86.01
2018-02-21T23:52:44.211Z,85.91
2018-02-21T23:55:10.443Z,85.99
2018-02-21T23:57:36.659Z,85.68
